sensor_id;sensor_type;location;lat;lon;timestamp;P1;durP1;ratioP1;P2;durP2;ratioP2
41921;SDS011;27609;51.002;5.354;2023-12-22T00:01:52;7.13;;;1.38;;
41921;SDS011;27609;51.002;5.354;2023-12-22T00:04:18;9.32;;;1.98;;
41921;SDS011;27609;51.002;5.354;2023-12-22T00:06:44;14.20;;;1.38;;
41921;SDS011;27609;51.002;5.354;2023-12-22T00:09:11;9.55;;;1.60;;
41921;SDS011;27609;51.002;5.354;2023-12-22T00:11:37;13.88;;;2.83;;
41921;SDS011;27609;51.002;5.354;2023-12-22T00:14:03;18.98;;;2.45;;
41921;SDS011;27609;51.002;5.354;2023-12-22T00:16:28;13.30;;;2.35;;
41921;SDS011;27609;51.002;5.354;2023-12-22T00:18:54;18.20;;;2.35;;
41921;SDS011;27609;51.002;5.354;2023-12-22T00:21:21;19.02;;;2.28;;
41921;SDS011;27609;51.002;5.354;2023-12-22T00:23:46;7.28;;;1.85;;
41921;SDS011;27609;51.002;5.354;2023-12-22T00:26:12;9.60;;;2.00;;
41921;SDS011;27609;51.002;5.354;2023-12-22T00:28:40;13.90;;;2.17;;
41921;SDS011;27609;51.002;5.354;2023-12-22T00:31:06;21.30;;;2.40;;
41921;SDS011;27609;51.002;5.354;2023-12-22T00:33:32;19.42;;;3.80;;
41921;SDS011;27609;51.002;5.354;2023-12-22T00:35:59;15.30;;;2.72;;
41921;SDS011;27609;51.002;5.354;2023-12-22T00:38:25;20.85;;;3.30;;
41921;SDS011;27609;51.002;5.354;2023-12-22T00:40:51;11.25;;;2.20;;
41921;SDS011;27609;51.002;5.354;2023-12-22T00:43:16;19.52;;;2.75;;
41921;SDS011;27609;51.002;5.354;2023-12-22T00:45:42;15.15;;;2.08;;
41921;SDS011;27609;51.002;5.354;2023-12-22T00:48:08;19.98;;;3.58;;
41921;SDS011;27609;51.002;5.354;2023-12-22T00:50:33;15.02;;;2.13;;
41921;SDS011;27609;51.002;5.354;2023-12-22T00:52:59;25.83;;;2.80;;
41921;SDS011;27609;51.002;5.354;2023-12-22T00:55:25;15.85;;;2.38;;
41921;SDS011;27609;51.002;5.354;2023-12-22T00:57:51;15.80;;;2.38;;
41921;SDS011;27609;51.002;5.354;2023-12-22T01:00:17;14.82;;;2.55;;
41921;SDS011;27609;51.002;5.354;2023-12-22T01:02:42;17.10;;;2.15;;
41921;SDS011;27609;51.002;5.354;2023-12-22T01:05:09;16.55;;;2.83;;
41921;SDS011;27609;51.002;5.354;2023-12-22T01:07:35;18.25;;;2.45;;
41921;SDS011;27609;51.002;5.354;2023-12-22T01:10:01;15.52;;;2.30;;
41921;SDS011;27609;51.002;5.354;2023-12-22T01:12:28;13.07;;;1.75;;
41921;SDS011;27609;51.002;5.354;2023-12-22T01:14:55;15.00;;;2.92;;
41921;SDS011;27609;51.002;5.354;2023-12-22T01:17:21;13.73;;;2.22;;
41921;SDS011;27609;51.002;5.354;2023-12-22T01:19:47;11.00;;;2.28;;
41921;SDS011;27609;51.002;5.354;2023-12-22T01:22:13;10.05;;;1.50;;
41921;SDS011;27609;51.002;5.354;2023-12-22T01:24:39;4.85;;;1.20;;
41921;SDS011;27609;51.002;5.354;2023-12-22T01:27:08;6.97;;;1.92;;
41921;SDS011;27609;51.002;5.354;2023-12-22T01:29:34;8.32;;;1.70;;
41921;SDS011;27609;51.002;5.354;2023-12-22T01:32:00;12.38;;;1.50;;
41921;SDS011;27609;51.002;5.354;2023-12-22T01:34:26;9.95;;;2.20;;
41921;SDS011;27609;51.002;5.354;2023-12-22T01:36:51;10.70;;;1.70;;
41921;SDS011;27609;51.002;5.354;2023-12-22T01:39:17;6.72;;;1.60;;
41921;SDS011;27609;51.002;5.354;2023-12-22T01:41:43;17.15;;;1.92;;
41921;SDS011;27609;51.002;5.354;2023-12-22T01:44:08;13.23;;;2.17;;
41921;SDS011;27609;51.002;5.354;2023-12-22T01:46:34;11.80;;;1.77;;
41921;SDS011;27609;51.002;5.354;2023-12-22T01:49:01;9.93;;;1.90;;
41921;SDS011;27609;51.002;5.354;2023-12-22T01:51:28;12.02;;;2.22;;
41921;SDS011;27609;51.002;5.354;2023-12-22T01:53:56;11.95;;;1.88;;
41921;SDS011;27609;51.002;5.354;2023-12-22T01:56:22;15.80;;;3.22;;
41921;SDS011;27609;51.002;5.354;2023-12-22T01:58:50;11.68;;;2.05;;
41921;SDS011;27609;51.002;5.354;2023-12-22T02:01:18;13.10;;;2.13;;
41921;SDS011;27609;51.002;5.354;2023-12-22T02:03:45;14.82;;;2.38;;
41921;SDS011;27609;51.002;5.354;2023-12-22T02:06:14;10.68;;;1.45;;
41921;SDS011;27609;51.002;5.354;2023-12-22T02:08:41;20.48;;;2.85;;
41921;SDS011;27609;51.002;5.354;2023-12-22T02:11:11;14.43;;;2.00;;
41921;SDS011;27609;51.002;5.354;2023-12-22T02:13:36;11.60;;;2.00;;
41921;SDS011;27609;51.002;5.354;2023-12-22T02:16:08;11.30;;;2.53;;
41921;SDS011;27609;51.002;5.354;2023-12-22T02:18:43;15.23;;;2.75;;
41921;SDS011;27609;51.002;5.354;2023-12-22T02:21:12;22.98;;;3.75;;
41921;SDS011;27609;51.002;5.354;2023-12-22T02:23:37;21.45;;;3.15;;
41921;SDS011;27609;51.002;5.354;2023-12-22T02:26:06;16.73;;;2.30;;
41921;SDS011;27609;51.002;5.354;2023-12-22T02:28:47;18.52;;;2.38;;
41921;SDS011;27609;51.002;5.354;2023-12-22T02:31:36;7.57;;;1.88;;
41921;SDS011;27609;51.002;5.354;2023-12-22T02:34:10;51.30;;;3.58;;
41921;SDS011;27609;51.002;5.354;2023-12-22T02:36:39;14.77;;;2.43;;
41921;SDS011;27609;51.002;5.354;2023-12-22T02:39:06;20.60;;;3.28;;
41921;SDS011;27609;51.002;5.354;2023-12-22T02:41:34;16.70;;;3.65;;
41921;SDS011;27609;51.002;5.354;2023-12-22T02:44:00;16.83;;;3.20;;
41921;SDS011;27609;51.002;5.354;2023-12-22T02:46:26;19.67;;;2.85;;
41921;SDS011;27609;51.002;5.354;2023-12-22T02:48:52;17.67;;;2.83;;
41921;SDS011;27609;51.002;5.354;2023-12-22T02:51:18;19.10;;;2.80;;
41921;SDS011;27609;51.002;5.354;2023-12-22T02:53:44;17.20;;;2.75;;
41921;SDS011;27609;51.002;5.354;2023-12-22T02:56:09;21.10;;;4.03;;
41921;SDS011;27609;51.002;5.354;2023-12-22T02:58:35;16.60;;;2.38;;
41921;SDS011;27609;51.002;5.354;2023-12-22T03:01:01;18.30;;;2.80;;
41921;SDS011;27609;51.002;5.354;2023-12-22T03:03:27;20.90;;;3.17;;
41921;SDS011;27609;51.002;5.354;2023-12-22T03:05:52;11.10;;;2.78;;
41921;SDS011;27609;51.002;5.354;2023-12-22T03:08:18;17.25;;;3.17;;
41921;SDS011;27609;51.002;5.354;2023-12-22T03:10:44;13.02;;;2.78;;
41921;SDS011;27609;51.002;5.354;2023-12-22T03:13:10;15.60;;;2.30;;
41921;SDS011;27609;51.002;5.354;2023-12-22T03:15:35;18.58;;;2.70;;
41921;SDS011;27609;51.002;5.354;2023-12-22T03:18:01;14.52;;;1.98;;
41921;SDS011;27609;51.002;5.354;2023-12-22T03:20:27;21.45;;;2.80;;
41921;SDS011;27609;51.002;5.354;2023-12-22T03:22:52;20.58;;;2.88;;
41921;SDS011;27609;51.002;5.354;2023-12-22T03:25:18;16.42;;;2.92;;
41921;SDS011;27609;51.002;5.354;2023-12-22T03:27:44;8.23;;;1.70;;
41921;SDS011;27609;51.002;5.354;2023-12-22T03:30:10;17.75;;;2.95;;
41921;SDS011;27609;51.002;5.354;2023-12-22T03:32:36;8.85;;;2.45;;
41921;SDS011;27609;51.002;5.354;2023-12-22T03:35:02;14.75;;;2.70;;
41921;SDS011;27609;51.002;5.354;2023-12-22T03:37:28;15.35;;;2.13;;
41921;SDS011;27609;51.002;5.354;2023-12-22T03:39:53;17.50;;;1.85;;
41921;SDS011;27609;51.002;5.354;2023-12-22T03:42:19;20.35;;;2.53;;
41921;SDS011;27609;51.002;5.354;2023-12-22T03:44:45;17.70;;;3.70;;
41921;SDS011;27609;51.002;5.354;2023-12-22T03:47:10;15.80;;;3.33;;
41921;SDS011;27609;51.002;5.354;2023-12-22T03:49:36;12.95;;;2.97;;
41921;SDS011;27609;51.002;5.354;2023-12-22T03:52:02;13.32;;;1.90;;
41921;SDS011;27609;51.002;5.354;2023-12-22T03:54:28;18.05;;;2.72;;
41921;SDS011;27609;51.002;5.354;2023-12-22T03:56:54;11.10;;;2.55;;
41921;SDS011;27609;51.002;5.354;2023-12-22T03:59:19;11.70;;;2.00;;
41921;SDS011;27609;51.002;5.354;2023-12-22T04:01:50;16.38;;;3.10;;
41921;SDS011;27609;51.002;5.354;2023-12-22T04:04:20;9.07;;;2.28;;
41921;SDS011;27609;51.002;5.354;2023-12-22T04:06:47;10.82;;;2.60;;
41921;SDS011;27609;51.002;5.354;2023-12-22T04:09:13;17.88;;;2.50;;
41921;SDS011;27609;51.002;5.354;2023-12-22T04:11:39;19.67;;;2.67;;
41921;SDS011;27609;51.002;5.354;2023-12-22T04:14:06;12.10;;;2.90;;
41921;SDS011;27609;51.002;5.354;2023-12-22T04:16:32;10.60;;;2.47;;
41921;SDS011;27609;51.002;5.354;2023-12-22T04:18:58;20.67;;;3.38;;
41921;SDS011;27609;51.002;5.354;2023-12-22T04:21:23;16.92;;;3.40;;
41921;SDS011;27609;51.002;5.354;2023-12-22T04:23:49;12.57;;;2.53;;
41921;SDS011;27609;51.002;5.354;2023-12-22T04:26:15;13.27;;;2.67;;
41921;SDS011;27609;51.002;5.354;2023-12-22T04:28:40;10.13;;;2.05;;
41921;SDS011;27609;51.002;5.354;2023-12-22T04:31:06;10.77;;;2.17;;
41921;SDS011;27609;51.002;5.354;2023-12-22T04:33:32;17.27;;;2.30;;
41921;SDS011;27609;51.002;5.354;2023-12-22T04:35:58;11.40;;;2.97;;
41921;SDS011;27609;51.002;5.354;2023-12-22T04:38:24;13.43;;;2.85;;
41921;SDS011;27609;51.002;5.354;2023-12-22T04:40:49;22.55;;;3.60;;
41921;SDS011;27609;51.002;5.354;2023-12-22T04:43:15;13.77;;;2.60;;
41921;SDS011;27609;51.002;5.354;2023-12-22T04:45:41;19.25;;;2.85;;
41921;SDS011;27609;51.002;5.354;2023-12-22T04:48:06;11.73;;;2.78;;
41921;SDS011;27609;51.002;5.354;2023-12-22T04:50:32;23.50;;;2.83;;
41921;SDS011;27609;51.002;5.354;2023-12-22T04:52:58;19.25;;;3.22;;
41921;SDS011;27609;51.002;5.354;2023-12-22T04:55:24;18.65;;;3.55;;
41921;SDS011;27609;51.002;5.354;2023-12-22T04:57:49;11.60;;;3.28;;
41921;SDS011;27609;51.002;5.354;2023-12-22T05:00:15;23.67;;;4.55;;
41921;SDS011;27609;51.002;5.354;2023-12-22T05:02:41;18.88;;;2.47;;
41921;SDS011;27609;51.002;5.354;2023-12-22T05:05:06;27.38;;;5.78;;
41921;SDS011;27609;51.002;5.354;2023-12-22T05:07:33;20.13;;;2.85;;
41921;SDS011;27609;51.002;5.354;2023-12-22T05:10:00;24.27;;;3.85;;
41921;SDS011;27609;51.002;5.354;2023-12-22T05:12:26;17.50;;;2.83;;
41921;SDS011;27609;51.002;5.354;2023-12-22T05:14:52;16.40;;;3.03;;
41921;SDS011;27609;51.002;5.354;2023-12-22T05:17:19;20.75;;;3.30;;
41921;SDS011;27609;51.002;5.354;2023-12-22T05:19:45;20.75;;;3.58;;
41921;SDS011;27609;51.002;5.354;2023-12-22T05:22:11;13.40;;;2.85;;
41921;SDS011;27609;51.002;5.354;2023-12-22T05:24:37;17.98;;;2.70;;
41921;SDS011;27609;51.002;5.354;2023-12-22T05:27:03;15.10;;;2.60;;
41921;SDS011;27609;51.002;5.354;2023-12-22T05:29:29;34.08;;;5.72;;
41921;SDS011;27609;51.002;5.354;2023-12-22T05:31:55;24.58;;;4.60;;
41921;SDS011;27609;51.002;5.354;2023-12-22T05:34:21;26.98;;;3.53;;
41921;SDS011;27609;51.002;5.354;2023-12-22T05:36:46;25.63;;;3.95;;
41921;SDS011;27609;51.002;5.354;2023-12-22T05:39:12;41.97;;;5.70;;
41921;SDS011;27609;51.002;5.354;2023-12-22T05:41:38;26.10;;;5.13;;
41921;SDS011;27609;51.002;5.354;2023-12-22T05:44:06;31.30;;;4.25;;
41921;SDS011;27609;51.002;5.354;2023-12-22T05:46:38;20.17;;;3.22;;
41921;SDS011;27609;51.002;5.354;2023-12-22T05:49:04;27.02;;;4.00;;
41921;SDS011;27609;51.002;5.354;2023-12-22T05:51:40;26.58;;;5.03;;
41921;SDS011;27609;51.002;5.354;2023-12-22T05:54:08;22.20;;;3.60;;
41921;SDS011;27609;51.002;5.354;2023-12-22T05:56:35;23.50;;;3.50;;
41921;SDS011;27609;51.002;5.354;2023-12-22T05:59:01;24.58;;;4.18;;
41921;SDS011;27609;51.002;5.354;2023-12-22T06:01:28;24.25;;;4.70;;
41921;SDS011;27609;51.002;5.354;2023-12-22T06:03:54;19.98;;;4.32;;
41921;SDS011;27609;51.002;5.354;2023-12-22T06:06:20;35.28;;;5.40;;
41921;SDS011;27609;51.002;5.354;2023-12-22T06:08:46;18.40;;;3.67;;
41921;SDS011;27609;51.002;5.354;2023-12-22T06:11:12;26.42;;;5.00;;
41921;SDS011;27609;51.002;5.354;2023-12-22T06:13:37;34.15;;;5.32;;
41921;SDS011;27609;51.002;5.354;2023-12-22T06:16:03;23.98;;;4.15;;
41921;SDS011;27609;51.002;5.354;2023-12-22T06:18:29;34.28;;;5.43;;
41921;SDS011;27609;51.002;5.354;2023-12-22T06:20:55;19.05;;;3.33;;
41921;SDS011;27609;51.002;5.354;2023-12-22T06:23:21;30.70;;;4.68;;
41921;SDS011;27609;51.002;5.354;2023-12-22T06:25:46;34.60;;;4.55;;
41921;SDS011;27609;51.002;5.354;2023-12-22T06:28:13;29.70;;;6.55;;
41921;SDS011;27609;51.002;5.354;2023-12-22T06:30:41;27.35;;;3.67;;
41921;SDS011;27609;51.002;5.354;2023-12-22T06:33:08;31.35;;;4.38;;
41921;SDS011;27609;51.002;5.354;2023-12-22T06:35:33;29.38;;;5.45;;
41921;SDS011;27609;51.002;5.354;2023-12-22T06:37:59;31.27;;;4.63;;
41921;SDS011;27609;51.002;5.354;2023-12-22T06:40:28;31.40;;;3.50;;
41921;SDS011;27609;51.002;5.354;2023-12-22T06:42:54;30.65;;;4.43;;
41921;SDS011;27609;51.002;5.354;2023-12-22T06:45:20;27.45;;;5.63;;
41921;SDS011;27609;51.002;5.354;2023-12-22T06:47:46;26.95;;;4.50;;
41921;SDS011;27609;51.002;5.354;2023-12-22T06:50:11;29.75;;;5.20;;
41921;SDS011;27609;51.002;5.354;2023-12-22T06:52:37;32.67;;;6.18;;
41921;SDS011;27609;51.002;5.354;2023-12-22T06:55:03;39.33;;;6.55;;
41921;SDS011;27609;51.002;5.354;2023-12-22T07:00:51;26.42;;;5.28;;
41921;SDS011;27609;51.002;5.354;2023-12-22T07:03:16;24.52;;;4.10;;
41921;SDS011;27609;51.002;5.354;2023-12-22T07:05:44;32.95;;;5.68;;
41921;SDS011;27609;51.002;5.354;2023-12-22T07:08:09;25.25;;;3.85;;
41921;SDS011;27609;51.002;5.354;2023-12-22T07:10:35;29.02;;;4.05;;
41921;SDS011;27609;51.002;5.354;2023-12-22T07:13:01;35.42;;;4.47;;
41921;SDS011;27609;51.002;5.354;2023-12-22T07:15:27;26.33;;;3.70;;
41921;SDS011;27609;51.002;5.354;2023-12-22T07:17:53;39.45;;;5.90;;
41921;SDS011;27609;51.002;5.354;2023-12-22T07:20:19;28.65;;;5.43;;
41921;SDS011;27609;51.002;5.354;2023-12-22T07:22:45;24.45;;;4.25;;
41921;SDS011;27609;51.002;5.354;2023-12-22T07:25:11;27.60;;;5.60;;
41921;SDS011;27609;51.002;5.354;2023-12-22T07:27:36;49.20;;;6.10;;
41921;SDS011;27609;51.002;5.354;2023-12-22T07:30:02;41.33;;;5.43;;
41921;SDS011;27609;51.002;5.354;2023-12-22T07:32:28;30.67;;;5.97;;
41921;SDS011;27609;51.002;5.354;2023-12-22T07:34:55;31.35;;;5.55;;
41921;SDS011;27609;51.002;5.354;2023-12-22T07:37:20;27.73;;;4.28;;
41921;SDS011;27609;51.002;5.354;2023-12-22T07:39:46;30.23;;;3.70;;
41921;SDS011;27609;51.002;5.354;2023-12-22T07:42:12;27.52;;;5.38;;
41921;SDS011;27609;51.002;5.354;2023-12-22T07:44:38;25.52;;;4.47;;
41921;SDS011;27609;51.002;5.354;2023-12-22T07:47:03;22.60;;;4.28;;
41921;SDS011;27609;51.002;5.354;2023-12-22T07:49:30;33.00;;;4.20;;
41921;SDS011;27609;51.002;5.354;2023-12-22T07:51:55;30.15;;;4.72;;
41921;SDS011;27609;51.002;5.354;2023-12-22T07:54:21;20.23;;;2.97;;
41921;SDS011;27609;51.002;5.354;2023-12-22T07:56:47;30.35;;;5.25;;
41921;SDS011;27609;51.002;5.354;2023-12-22T07:59:13;21.40;;;3.65;;
41921;SDS011;27609;51.002;5.354;2023-12-22T08:01:39;21.42;;;3.75;;
41921;SDS011;27609;51.002;5.354;2023-12-22T08:04:05;19.05;;;2.90;;
41921;SDS011;27609;51.002;5.354;2023-12-22T08:06:31;28.08;;;3.65;;
41921;SDS011;27609;51.002;5.354;2023-12-22T08:08:58;19.55;;;4.10;;
41921;SDS011;27609;51.002;5.354;2023-12-22T08:11:23;18.83;;;3.80;;
41921;SDS011;27609;51.002;5.354;2023-12-22T08:13:50;22.52;;;3.30;;
41921;SDS011;27609;51.002;5.354;2023-12-22T08:16:16;13.48;;;2.75;;
41921;SDS011;27609;51.002;5.354;2023-12-22T08:18:41;13.02;;;2.30;;
41921;SDS011;27609;51.002;5.354;2023-12-22T08:21:07;22.88;;;3.33;;
41921;SDS011;27609;51.002;5.354;2023-12-22T08:23:33;19.85;;;3.50;;
41921;SDS011;27609;51.002;5.354;2023-12-22T08:25:59;15.85;;;3.33;;
41921;SDS011;27609;51.002;5.354;2023-12-22T08:28:24;6.88;;;2.33;;
41921;SDS011;27609;51.002;5.354;2023-12-22T08:30:51;10.80;;;3.40;;
41921;SDS011;27609;51.002;5.354;2023-12-22T08:33:17;18.55;;;2.85;;
41921;SDS011;27609;51.002;5.354;2023-12-22T08:35:43;12.38;;;3.05;;
41921;SDS011;27609;51.002;5.354;2023-12-22T08:38:09;18.77;;;2.53;;
41921;SDS011;27609;51.002;5.354;2023-12-22T08:40:35;12.10;;;2.75;;
41921;SDS011;27609;51.002;5.354;2023-12-22T08:43:01;15.88;;;3.25;;
41921;SDS011;27609;51.002;5.354;2023-12-22T08:45:27;15.32;;;2.92;;
41921;SDS011;27609;51.002;5.354;2023-12-22T08:47:56;11.77;;;4.15;;
41921;SDS011;27609;51.002;5.354;2023-12-22T08:50:22;15.10;;;3.40;;
41921;SDS011;27609;51.002;5.354;2023-12-22T08:52:48;15.90;;;2.92;;
41921;SDS011;27609;51.002;5.354;2023-12-22T08:55:14;17.33;;;3.53;;
41921;SDS011;27609;51.002;5.354;2023-12-22T08:57:39;8.05;;;2.22;;
41921;SDS011;27609;51.002;5.354;2023-12-22T09:00:05;12.85;;;3.78;;
41921;SDS011;27609;51.002;5.354;2023-12-22T09:02:31;12.00;;;5.25;;
41921;SDS011;27609;51.002;5.354;2023-12-22T09:04:57;11.50;;;4.28;;
41921;SDS011;27609;51.002;5.354;2023-12-22T09:07:23;8.07;;;3.20;;
41921;SDS011;27609;51.002;5.354;2023-12-22T09:09:49;10.57;;;3.42;;
41921;SDS011;27609;51.002;5.354;2023-12-22T09:12:15;11.25;;;3.40;;
41921;SDS011;27609;51.002;5.354;2023-12-22T09:14:41;14.88;;;4.03;;
41921;SDS011;27609;51.002;5.354;2023-12-22T09:17:07;11.98;;;3.72;;
41921;SDS011;27609;51.002;5.354;2023-12-22T09:19:33;12.45;;;5.40;;
41921;SDS011;27609;51.002;5.354;2023-12-22T09:21:59;10.48;;;4.47;;
41921;SDS011;27609;51.002;5.354;2023-12-22T09:24:25;16.48;;;5.32;;
41921;SDS011;27609;51.002;5.354;2023-12-22T09:26:50;9.85;;;3.58;;
41921;SDS011;27609;51.002;5.354;2023-12-22T09:29:17;10.88;;;3.53;;
41921;SDS011;27609;51.002;5.354;2023-12-22T09:31:42;10.23;;;3.17;;
41921;SDS011;27609;51.002;5.354;2023-12-22T09:34:08;15.70;;;3.30;;
41921;SDS011;27609;51.002;5.354;2023-12-22T09:36:34;13.00;;;3.30;;
41921;SDS011;27609;51.002;5.354;2023-12-22T09:39:00;7.35;;;3.03;;
41921;SDS011;27609;51.002;5.354;2023-12-22T09:41:25;9.63;;;4.45;;
41921;SDS011;27609;51.002;5.354;2023-12-22T09:43:51;8.02;;;3.45;;
41921;SDS011;27609;51.002;5.354;2023-12-22T09:46:20;10.95;;;3.17;;
41921;SDS011;27609;51.002;5.354;2023-12-22T09:48:46;7.28;;;3.28;;
41921;SDS011;27609;51.002;5.354;2023-12-22T09:51:15;9.07;;;3.08;;
41921;SDS011;27609;51.002;5.354;2023-12-22T09:53:43;12.30;;;3.65;;
41921;SDS011;27609;51.002;5.354;2023-12-22T09:56:10;8.45;;;3.35;;
41921;SDS011;27609;51.002;5.354;2023-12-22T09:58:36;5.97;;;2.92;;
41921;SDS011;27609;51.002;5.354;2023-12-22T10:01:04;5.75;;;3.35;;
41921;SDS011;27609;51.002;5.354;2023-12-22T10:03:30;5.82;;;4.00;;
41921;SDS011;27609;51.002;5.354;2023-12-22T10:05:59;6.63;;;3.97;;
41921;SDS011;27609;51.002;5.354;2023-12-22T10:08:26;4.28;;;2.70;;
41921;SDS011;27609;51.002;5.354;2023-12-22T10:10:52;3.65;;;2.88;;
41921;SDS011;27609;51.002;5.354;2023-12-22T10:13:18;5.15;;;2.80;;
41921;SDS011;27609;51.002;5.354;2023-12-22T10:15:45;3.17;;;2.90;;
41921;SDS011;27609;51.002;5.354;2023-12-22T10:18:12;3.65;;;2.50;;
41921;SDS011;27609;51.002;5.354;2023-12-22T10:20:38;8.55;;;3.53;;
41921;SDS011;27609;51.002;5.354;2023-12-22T10:23:04;8.27;;;3.25;;
41921;SDS011;27609;51.002;5.354;2023-12-22T10:25:30;5.03;;;3.35;;
41921;SDS011;27609;51.002;5.354;2023-12-22T10:27:57;5.63;;;2.83;;
41921;SDS011;27609;51.002;5.354;2023-12-22T10:30:23;7.65;;;2.63;;
41921;SDS011;27609;51.002;5.354;2023-12-22T10:32:52;4.85;;;2.60;;
41921;SDS011;27609;51.002;5.354;2023-12-22T10:35:19;4.53;;;2.53;;
41921;SDS011;27609;51.002;5.354;2023-12-22T10:37:45;4.72;;;2.45;;
41921;SDS011;27609;51.002;5.354;2023-12-22T10:40:12;5.75;;;2.28;;
41921;SDS011;27609;51.002;5.354;2023-12-22T10:42:39;6.35;;;2.25;;
41921;SDS011;27609;51.002;5.354;2023-12-22T10:45:06;6.78;;;2.20;;
41921;SDS011;27609;51.002;5.354;2023-12-22T10:47:32;7.95;;;2.20;;
41921;SDS011;27609;51.002;5.354;2023-12-22T10:50:02;6.30;;;2.30;;
41921;SDS011;27609;51.002;5.354;2023-12-22T10:54:56;2.75;;;2.08;;
41921;SDS011;27609;51.002;5.354;2023-12-22T10:57:23;2.78;;;2.25;;
41921;SDS011;27609;51.002;5.354;2023-12-22T10:59:49;8.63;;;2.83;;
41921;SDS011;27609;51.002;5.354;2023-12-22T11:02:17;5.25;;;2.22;;
41921;SDS011;27609;51.002;5.354;2023-12-22T11:04:57;3.58;;;1.70;;
41921;SDS011;27609;51.002;5.354;2023-12-22T11:07:26;2.70;;;1.48;;
41921;SDS011;27609;51.002;5.354;2023-12-22T11:09:54;6.47;;;1.70;;
41921;SDS011;27609;51.002;5.354;2023-12-22T11:12:23;4.72;;;1.50;;
41921;SDS011;27609;51.002;5.354;2023-12-22T11:14:50;4.88;;;2.10;;
41921;SDS011;27609;51.002;5.354;2023-12-22T11:17:21;7.50;;;1.90;;
41921;SDS011;27609;51.002;5.354;2023-12-22T11:19:53;6.60;;;1.70;;
41921;SDS011;27609;51.002;5.354;2023-12-22T11:22:19;4.57;;;1.73;;
41921;SDS011;27609;51.002;5.354;2023-12-22T11:24:47;3.20;;;2.05;;
41921;SDS011;27609;51.002;5.354;2023-12-22T11:27:20;4.63;;;2.20;;
41921;SDS011;27609;51.002;5.354;2023-12-22T11:29:49;6.35;;;1.95;;
41921;SDS011;27609;51.002;5.354;2023-12-22T11:32:16;7.50;;;1.60;;
41921;SDS011;27609;51.002;5.354;2023-12-22T11:34:43;5.90;;;1.50;;
41921;SDS011;27609;51.002;5.354;2023-12-22T11:37:13;10.43;;;2.15;;
41921;SDS011;27609;51.002;5.354;2023-12-22T11:39:41;5.60;;;1.95;;
41921;SDS011;27609;51.002;5.354;2023-12-22T11:42:08;10.13;;;2.25;;
41921;SDS011;27609;51.002;5.354;2023-12-22T11:44:41;14.02;;;2.75;;
41921;SDS011;27609;51.002;5.354;2023-12-22T11:47:08;1.70;;;1.45;;
41921;SDS011;27609;51.002;5.354;2023-12-22T11:49:37;2.75;;;1.50;;
41921;SDS011;27609;51.002;5.354;2023-12-22T11:52:10;5.60;;;2.22;;
41921;SDS011;27609;51.002;5.354;2023-12-22T11:54:43;5.80;;;1.48;;
41921;SDS011;27609;51.002;5.354;2023-12-22T12:00:10;5.15;;;1.40;;
41921;SDS011;27609;51.002;5.354;2023-12-22T12:03:31;4.28;;;1.30;;
41921;SDS011;27609;51.002;5.354;2023-12-22T12:21:53;5.97;;;1.30;;
41921;SDS011;27609;51.002;5.354;2023-12-22T12:37:44;4.00;;;1.30;;
41921;SDS011;27609;51.002;5.354;2023-12-22T12:40:11;7.85;;;2.17;;
41921;SDS011;27609;51.002;5.354;2023-12-22T12:42:37;13.70;;;3.00;;
41921;SDS011;27609;51.002;5.354;2023-12-22T12:51:11;8.52;;;2.08;;
41921;SDS011;27609;51.002;5.354;2023-12-22T12:57:13;8.82;;;1.70;;
41921;SDS011;27609;51.002;5.354;2023-12-22T13:03:13;8.40;;;1.42;;
41921;SDS011;27609;51.002;5.354;2023-12-22T13:09:02;3.85;;;1.10;;
41921;SDS011;27609;51.002;5.354;2023-12-22T13:11:30;8.07;;;0.95;;
41921;SDS011;27609;51.002;5.354;2023-12-22T13:13:57;2.95;;;0.93;;
41921;SDS011;27609;51.002;5.354;2023-12-22T13:16:23;5.00;;;1.58;;
41921;SDS011;27609;51.002;5.354;2023-12-22T13:22:18;2.60;;;1.10;;
41921;SDS011;27609;51.002;5.354;2023-12-22T13:24:54;9.38;;;1.10;;
41921;SDS011;27609;51.002;5.354;2023-12-22T13:28:06;4.93;;;1.38;;
41921;SDS011;27609;51.002;5.354;2023-12-22T13:36:25;6.15;;;1.55;;
41921;SDS011;27609;51.002;5.354;2023-12-22T13:38:51;10.68;;;2.05;;
41921;SDS011;27609;51.002;5.354;2023-12-22T13:41:18;3.70;;;1.08;;
41921;SDS011;27609;51.002;5.354;2023-12-22T13:43:44;4.53;;;1.33;;
41921;SDS011;27609;51.002;5.354;2023-12-22T13:46:13;5.90;;;1.08;;
41921;SDS011;27609;51.002;5.354;2023-12-22T13:48:42;5.03;;;1.38;;
41921;SDS011;27609;51.002;5.354;2023-12-22T13:51:09;6.75;;;1.48;;
41921;SDS011;27609;51.002;5.354;2023-12-22T13:53:35;3.80;;;1.80;;
41921;SDS011;27609;51.002;5.354;2023-12-22T13:56:39;4.13;;;1.67;;
41921;SDS011;27609;51.002;5.354;2023-12-22T13:59:08;4.78;;;1.73;;
41921;SDS011;27609;51.002;5.354;2023-12-22T14:11:27;4.90;;;1.40;;
41921;SDS011;27609;51.002;5.354;2023-12-22T14:13:52;14.02;;;2.35;;
41921;SDS011;27609;51.002;5.354;2023-12-22T14:16:18;6.50;;;1.30;;
41921;SDS011;27609;51.002;5.354;2023-12-22T14:18:44;5.32;;;1.35;;
41921;SDS011;27609;51.002;5.354;2023-12-22T14:21:10;9.43;;;1.70;;
41921;SDS011;27609;51.002;5.354;2023-12-22T14:26:58;6.55;;;1.15;;
41921;SDS011;27609;51.002;5.354;2023-12-22T14:29:24;4.43;;;1.23;;
41921;SDS011;27609;51.002;5.354;2023-12-22T14:31:50;3.58;;;1.40;;
41921;SDS011;27609;51.002;5.354;2023-12-22T14:34:16;4.40;;;1.42;;
41921;SDS011;27609;51.002;5.354;2023-12-22T14:36:43;5.32;;;1.55;;
41921;SDS011;27609;51.002;5.354;2023-12-22T14:39:11;4.63;;;1.08;;
41921;SDS011;27609;51.002;5.354;2023-12-22T14:41:38;5.43;;;1.50;;
41921;SDS011;27609;51.002;5.354;2023-12-22T14:44:05;5.15;;;1.35;;
41921;SDS011;27609;51.002;5.354;2023-12-22T14:46:31;10.80;;;1.50;;
41921;SDS011;27609;51.002;5.354;2023-12-22T14:48:57;8.50;;;1.77;;
41921;SDS011;27609;51.002;5.354;2023-12-22T14:51:23;12.02;;;2.65;;
41921;SDS011;27609;51.002;5.354;2023-12-22T14:53:48;3.20;;;1.13;;
41921;SDS011;27609;51.002;5.354;2023-12-22T14:56:14;5.35;;;1.65;;
41921;SDS011;27609;51.002;5.354;2023-12-22T14:58:41;5.78;;;1.65;;
41921;SDS011;27609;51.002;5.354;2023-12-22T15:01:06;7.35;;;1.40;;
41921;SDS011;27609;51.002;5.354;2023-12-22T15:03:38;5.03;;;1.00;;
41921;SDS011;27609;51.002;5.354;2023-12-22T15:06:04;5.80;;;1.00;;
41921;SDS011;27609;51.002;5.354;2023-12-22T15:08:30;14.00;;;1.50;;
41921;SDS011;27609;51.002;5.354;2023-12-22T15:10:55;12.60;;;1.67;;
41921;SDS011;27609;51.002;5.354;2023-12-22T15:13:21;5.93;;;1.60;;
41921;SDS011;27609;51.002;5.354;2023-12-22T15:15:47;6.95;;;1.70;;
41921;SDS011;27609;51.002;5.354;2023-12-22T15:18:12;9.80;;;1.90;;
41921;SDS011;27609;51.002;5.354;2023-12-22T15:20:38;6.78;;;1.85;;
41921;SDS011;27609;51.002;5.354;2023-12-22T15:23:04;8.68;;;1.50;;
41921;SDS011;27609;51.002;5.354;2023-12-22T15:25:30;7.28;;;1.33;;
41921;SDS011;27609;51.002;5.354;2023-12-22T15:27:56;12.70;;;1.50;;
41921;SDS011;27609;51.002;5.354;2023-12-22T15:30:22;4.32;;;1.42;;
41921;SDS011;27609;51.002;5.354;2023-12-22T15:32:48;10.63;;;2.38;;
41921;SDS011;27609;51.002;5.354;2023-12-22T15:35:14;11.20;;;1.90;;
41921;SDS011;27609;51.002;5.354;2023-12-22T15:37:40;9.35;;;2.22;;
41921;SDS011;27609;51.002;5.354;2023-12-22T15:40:06;7.32;;;1.80;;
41921;SDS011;27609;51.002;5.354;2023-12-22T15:42:35;4.53;;;0.88;;
41921;SDS011;27609;51.002;5.354;2023-12-22T15:45:01;6.25;;;1.50;;
41921;SDS011;27609;51.002;5.354;2023-12-22T15:47:26;6.07;;;1.83;;
41921;SDS011;27609;51.002;5.354;2023-12-22T15:49:52;5.18;;;1.95;;
41921;SDS011;27609;51.002;5.354;2023-12-22T15:52:18;4.80;;;1.55;;
41921;SDS011;27609;51.002;5.354;2023-12-22T15:54:44;4.07;;;1.30;;